Austell, GA (30168)

6:45 PM EDT on September 02, 2014 (GMT -0400)
Lithia Springs | Change Station
CLOSE
Current Station
Personal Weather Station
Location: Austell, GA
Elevation: 791 ft
Nearby Weather Stations

Elev 791 ft 33.75 °N, 84.58 °W | Updated 3 seconds ago

Clear
Clear
85.0 °F
Feels Like 94 °F
N
0.0
Wind Variable Wind from WNW
Gusts 3.0 mph

Today
High -- | Low -- °F
--% Chance of Precip.
Yesterday
High -- | Low -- °F
Precip. -- in
7:12 AM 8:02 PM
First Quarter, 55% visible
Pressure 29.98 in
Visibility 10.0 miles
Clouds Clear
Heat Index 94 °F
Dew Point 75 °F
Humidity 73%
Rainfall 0.01 in
Snow Depth Not available.
UV 2 out of 12
Pollen 9.20 out of 12
Ozone Good
PM2.5 Good
Flu Activity Not available.
METAR KFTY 022153Z 15003KT 10SM CLR 26/22 A3000 RMK AO2 RAE20 SLP151 P0000 T02560222

More Conditions Fewer Conditions

Pressure 29.98 in
Visibility 10.0 miles
Clouds Clear
Heat Index 94 °F
Dew Point 75 °F
Humidity 73%
Rainfall 0.01 in
Snow Depth Not available.
UV 2 out of 12
Pollen 9.20 out of 12
Ozone Good
PM2.5 Good
Flu Activity Not available.
METAR KFTY 022153Z 15003KT 10SM CLR 26/22 A3000 RMK AO2 RAE20 SLP151 P0000 T02560222

More Conditions Fewer Conditions

10-Day Weather Forecast

Almanac

Astronomy

Sep. 02, 2014 Rise Set
Actual Time 7:12 AM EDT 8:02 PM EDT
Civil Twilight 6:47 AM EDT 8:27 PM EDT
Nautical Twilight 6:17 AM EDT 8:57 PM EDT
Astronomical Twilight 5:46 AM EDT 9:28 PM EDT
Moon 2:36 PM EDT 12:23 AM EDT
Length of Visible Light 13h 40m
Length of Day
12h 49m
Tomorrow will be 2m 1s shorter.
First Quarter, 55% of the Moon is Illuminated
Today
First Quarter
Sep 8
Full
Sep 15
Last Quarter
Sep 24
New
Oct 1
First Quarter

Today's Extremes

State Highs State Lows

Community

WunderPhotos

Upload Photos

1,749,791 photos uploaded!

Nearby

Air Quality

  Air Quality AQ Index Pollutant
Current Good
PM2.5
Current Good
OZONE
Tuesday Moderate
OZONE
Tuesday Moderate
PM2.5
Wednesday Moderate
OZONE
Wednesday Moderate
PM2.5

Snow Depth

Station Depth Elevation
No new snow has been reported.

Earthquake Activity

City Distance Mag. Time & Date
No recent earthquake activity has been reported nearby.
Minimum magnitude displayed is 2.5.

Coastal Water Temperatures

Place Temperature
No Stations Reporting

Nearby Weather Stations